Time,TemperatureF,DewpointF,PressureIn,WindDirection,WindDirectionDegrees,WindSpeedMPH,WindSpeedGustMPH,Humidity,HourlyPrecipIn,Conditions,Clouds,dailyrainin,SolarRadiationWatts/m^2,SoftwareType,DateUTC
2013-04-23 00:03:00,41.0,27.0,-100.00,SSE,160,2.0,7.0,57,0.00,,,0.00,0.000000,,2013-04-23 04:03:00,
2013-04-23 00:13:00,41.0,27.0,-100.00,SSE,160,2.0,7.0,57,0.00,,,0.00,0.000000,,2013-04-23 04:13:00,
2013-04-23 00:23:00,41.0,27.0,-100.00,SSE,160,2.0,7.0,57,0.00,,,0.00,0.000000,,2013-04-23 04:23:00,
2013-04-23 00:33:00,41.0,27.0,-100.00,SSE,160,2.0,7.0,57,0.00,,,0.00,0.000000,,2013-04-23 04:33:00,
2013-04-23 01:02:00,39.0,27.0,-100.00,South,175,1.0,7.0,62,0.00,,,0.00,0.000000,,2013-04-23 05:02:00,
2013-04-23 01:12:00,39.0,27.0,-100.00,South,175,1.0,7.0,62,0.00,,,0.00,0.000000,,2013-04-23 05:12:00,
2013-04-23 01:22:00,39.0,27.0,-100.00,South,175,1.0,7.0,62,0.00,,,0.00,0.000000,,2013-04-23 05:22:00,
2013-04-23 01:32:00,39.0,27.0,-100.00,South,175,1.0,7.0,62,0.00,,,0.00,0.000000,,2013-04-23 05:32:00,
2013-04-23 02:02:00,37.0,27.0,-100.00,ESE,123,0.0,3.0,66,0.00,,,0.00,0.000000,,2013-04-23 06:02:00,
2013-04-23 02:12:00,37.0,27.0,-100.00,ESE,123,0.0,3.0,66,0.00,,,0.00,0.000000,,2013-04-23 06:12:00,
2013-04-23 02:22:00,37.0,27.0,-100.00,ESE,123,0.0,3.0,66,0.00,,,0.00,0.000000,,2013-04-23 06:22:00,
2013-04-23 02:33:00,37.0,27.0,-100.00,ESE,123,0.0,3.0,66,0.00,,,0.00,0.000000,,2013-04-23 06:33:00,
2013-04-23 03:02:00,34.0,26.0,-100.00,SSW,212,0.0,0.0,72,0.00,,,0.00,0.000000,,2013-04-23 07:02:00,
2013-04-23 03:11:00,34.0,26.0,-100.00,SSW,212,0.0,0.0,72,0.00,,,0.00,0.000000,,2013-04-23 07:11:00,
2013-04-23 03:22:00,34.0,26.0,-100.00,SSW,212,0.0,0.0,72,0.00,,,0.00,0.000000,,2013-04-23 07:22:00,
2013-04-23 03:32:00,34.0,26.0,-100.00,SSW,212,0.0,0.0,72,0.00,,,0.00,0.000000,,2013-04-23 07:32:00,
2013-04-23 04:02:00,33.0,26.0,-100.00,SSE,153,0.0,2.0,75,0.00,,,0.00,0.000000,,2013-04-23 08:02:00,
2013-04-23 04:11:00,33.0,26.0,-100.00,SSE,153,0.0,2.0,75,0.00,,,0.00,0.000000,,2013-04-23 08:11:00,
2013-04-23 04:22:00,33.0,26.0,-100.00,SSE,153,0.0,2.0,75,0.00,,,0.00,0.000000,,2013-04-23 08:22:00,
2013-04-23 04:32:00,33.0,26.0,-100.00,SSE,153,0.0,2.0,75,0.00,,,0.00,0.000000,,2013-04-23 08:32:00,
2013-04-23 05:02:00,33.0,26.0,-100.00,SSE,147,2.0,3.0,74,0.00,,,0.00,0.000000,,2013-04-23 09:02:00,
2013-04-23 05:11:00,33.0,26.0,-100.00,SSE,147,2.0,3.0,74,0.00,,,0.00,0.000000,,2013-04-23 09:11:00,
2013-04-23 05:22:00,33.0,26.0,-100.00,SSE,147,2.0,3.0,74,0.00,,,0.00,0.000000,,2013-04-23 09:22:00,
2013-04-23 05:33:00,33.0,26.0,-100.00,SSE,147,2.0,3.0,74,0.00,,,0.00,0.000000,,2013-04-23 09:33:00,
2013-04-23 06:03:00,30.0,24.0,-100.00,WNW,299,0.0,2.0,79,0.00,,,0.00,0.000000,,2013-04-23 10:03:00,
2013-04-23 06:13:00,30.0,24.0,-100.00,WNW,299,0.0,2.0,79,0.00,,,0.00,0.000000,,2013-04-23 10:13:00,
2013-04-23 06:23:00,30.0,24.0,-100.00,WNW,299,0.0,2.0,79,0.00,,,0.00,0.000000,,2013-04-23 10:23:00,
2013-04-23 06:33:00,30.0,24.0,-100.00,WNW,299,0.0,2.0,79,0.00,,,0.00,0.000000,,2013-04-23 10:33:00,
2013-04-23 07:03:00,29.0,24.0,-100.00,North,354,0.0,2.0,82,0.00,,,0.00,7.000000,,2013-04-23 11:03:00,
2013-04-23 07:12:00,29.0,24.0,-100.00,North,354,0.0,2.0,82,0.00,,,0.00,7.000000,,2013-04-23 11:12:00,
2013-04-23 07:22:00,29.0,24.0,-100.00,North,354,0.0,2.0,82,0.00,,,0.00,7.000000,,2013-04-23 11:22:00,
2013-04-23 07:32:00,29.0,24.0,-100.00,North,354,0.0,2.0,82,0.00,,,0.00,7.000000,,2013-04-23 11:32:00,
2013-04-23 08:02:00,34.0,26.0,-100.00,NE,49,1.0,3.0,71,0.00,,,0.00,37.000000,,2013-04-23 12:02:00,
2013-04-23 08:12:00,34.0,26.0,-100.00,NE,49,1.0,3.0,71,0.00,,,0.00,37.000000,,2013-04-23 12:12:00,
2013-04-23 08:22:00,34.0,26.0,-100.00,NE,49,1.0,3.0,71,0.00,,,0.00,37.000000,,2013-04-23 12:22:00,
2013-04-23 08:32:00,34.0,26.0,-100.00,NE,49,1.0,3.0,71,0.00,,,0.00,37.000000,,2013-04-23 12:32:00,
2013-04-23 09:01:00,39.0,26.0,-100.00,ENE,71,2.0,5.0,59,0.00,,,0.00,65.000000,,2013-04-23 13:01:00,
2013-04-23 09:12:00,39.0,26.0,-100.00,ENE,71,2.0,5.0,59,0.00,,,0.00,65.000000,,2013-04-23 13:12:00,
2013-04-23 09:22:00,39.0,26.0,-100.00,ENE,71,2.0,5.0,59,0.00,,,0.00,65.000000,,2013-04-23 13:22:00,
2013-04-23 09:32:00,39.0,26.0,-100.00,ENE,71,2.0,5.0,59,0.00,,,0.00,65.000000,,2013-04-23 13:32:00,
2013-04-23 10:02:00,46.0,27.0,-100.00,East,84,2.0,6.0,48,0.00,,,0.00,489.000000,,2013-04-23 14:02:00,
2013-04-23 10:11:00,46.0,27.0,-100.00,East,84,2.0,6.0,48,0.00,,,0.00,489.000000,,2013-04-23 14:11:00,
2013-04-23 10:22:00,46.0,27.0,-100.00,East,84,2.0,6.0,48,0.00,,,0.00,489.000000,,2013-04-23 14:22:00,
2013-04-23 10:32:00,46.0,27.0,-100.00,East,84,2.0,6.0,48,0.00,,,0.00,489.000000,,2013-04-23 14:32:00,
2013-04-23 11:01:00,48.0,29.0,-100.00,NNE,25,3.0,6.0,48,0.00,,,0.00,470.000000,,2013-04-23 15:01:00,
2013-04-23 11:12:00,48.0,29.0,-100.00,NNE,25,3.0,6.0,48,0.00,,,0.00,470.000000,,2013-04-23 15:12:00,
2013-04-23 11:22:00,48.0,29.0,-100.00,NNE,25,3.0,6.0,48,0.00,,,0.00,470.000000,,2013-04-23 15:22:00,
2013-04-23 11:32:00,48.0,29.0,-100.00,NNE,25,3.0,6.0,48,0.00,,,0.00,470.000000,,2013-04-23 15:32:00,
2013-04-23 12:03:00,49.0,31.0,-100.00,East,97,2.0,7.0,50,0.00,,,0.00,390.000000,,2013-04-23 16:03:00,
2013-04-23 12:12:00,49.0,31.0,-100.00,East,97,2.0,7.0,50,0.00,,,0.00,390.000000,,2013-04-23 16:12:00,
2013-04-23 12:23:00,49.0,31.0,-100.00,East,97,2.0,7.0,50,0.00,,,0.00,390.000000,,2013-04-23 16:23:00,
2013-04-23 12:34:00,49.0,31.0,-100.00,East,97,2.0,7.0,50,0.00,,,0.00,390.000000,,2013-04-23 16:34:00,
2013-04-23 13:02:00,54.0,34.0,-100.00,South,186,2.0,8.0,47,0.00,,,0.00,497.000000,,2013-04-23 17:02:00,
2013-04-23 13:12:00,54.0,34.0,-100.00,South,186,2.0,8.0,47,0.00,,,0.00,497.000000,,2013-04-23 17:12:00,
2013-04-23 13:22:00,54.0,34.0,-100.00,South,186,2.0,8.0,47,0.00,,,0.00,497.000000,,2013-04-23 17:22:00,
2013-04-23 13:33:00,54.0,34.0,-100.00,South,186,2.0,8.0,47,0.00,,,0.00,497.000000,,2013-04-23 17:33:00,
2013-04-23 14:02:00,51.0,35.0,-100.00,SSE,164,2.0,6.0,54,0.00,,,0.00,326.000000,,2013-04-23 18:02:00,
2013-04-23 14:12:00,51.0,35.0,-100.00,SSE,164,2.0,6.0,54,0.00,,,0.00,326.000000,,2013-04-23 18:12:00,
2013-04-23 14:22:00,51.0,35.0,-100.00,SSE,164,2.0,6.0,54,0.00,,,0.00,326.000000,,2013-04-23 18:22:00,
2013-04-23 14:32:00,51.0,35.0,-100.00,SSE,164,2.0,6.0,54,0.00,,,0.00,326.000000,,2013-04-23 18:32:00,
2013-04-23 15:02:00,54.0,36.0,-100.00,ESE,113,2.0,5.0,50,0.00,,,-99.99,336.000000,,2013-04-23 19:02:00,
2013-04-23 15:11:00,54.0,36.0,-100.00,ESE,113,2.0,5.0,50,0.00,,,-99.99,336.000000,,2013-04-23 19:11:00,
2013-04-23 15:22:00,54.0,36.0,-100.00,ESE,113,2.0,5.0,50,0.00,,,-99.99,336.000000,,2013-04-23 19:22:00,
2013-04-23 15:32:00,54.0,36.0,-100.00,ESE,113,2.0,5.0,50,0.00,,,-99.99,336.000000,,2013-04-23 19:32:00,
2013-04-23 16:02:00,57.0,37.0,-100.00,SW,226,2.0,6.0,47,0.00,,,0.00,623.000000,,2013-04-23 20:02:00,
2013-04-23 16:11:00,57.0,37.0,-100.00,SW,226,2.0,6.0,47,0.00,,,0.00,623.000000,,2013-04-23 20:11:00,
2013-04-23 16:22:00,57.0,37.0,-100.00,SW,226,2.0,6.0,47,0.00,,,0.00,623.000000,,2013-04-23 20:22:00,
2013-04-23 16:32:00,57.0,37.0,-100.00,SW,226,2.0,6.0,47,0.00,,,0.00,623.000000,,2013-04-23 20:32:00,
2013-04-23 17:02:00,58.0,37.0,-100.00,SSE,153,3.0,8.0,45,0.00,,,0.00,539.000000,,2013-04-23 21:02:00,
2013-04-23 17:12:00,58.0,37.0,-100.00,SSE,153,3.0,8.0,45,0.00,,,0.00,539.000000,,2013-04-23 21:12:00,
2013-04-23 17:22:00,58.0,37.0,-100.00,SSE,153,3.0,8.0,45,0.00,,,0.00,539.000000,,2013-04-23 21:22:00,
2013-04-23 17:33:00,58.0,37.0,-100.00,SSE,153,3.0,8.0,45,0.00,,,0.00,539.000000,,2013-04-23 21:33:00,
2013-04-23 18:03:00,55.0,35.0,-100.00,South,178,1.0,6.0,47,0.00,,,0.00,272.000000,,2013-04-23 22:03:00,
2013-04-23 18:12:00,55.0,35.0,-100.00,South,178,1.0,6.0,47,0.00,,,0.00,272.000000,,2013-04-23 22:12:00,
2013-04-23 18:23:00,55.0,35.0,-100.00,South,178,1.0,6.0,47,0.00,,,0.00,272.000000,,2013-04-23 22:23:00,
2013-04-23 18:33:00,55.0,35.0,-100.00,South,178,1.0,6.0,47,0.00,,,0.00,272.000000,,2013-04-23 22:33:00,
2013-04-23 19:03:00,54.0,36.0,-100.00,SSE,152,1.0,5.0,51,0.00,,,0.00,125.000000,,2013-04-23 23:03:00,
2013-04-23 19:12:00,54.0,36.0,-100.00,SSE,152,1.0,5.0,51,0.00,,,0.00,125.000000,,2013-04-23 23:12:00,
2013-04-23 19:22:00,54.0,36.0,-100.00,SSE,152,1.0,5.0,51,0.00,,,0.00,125.000000,,2013-04-23 23:22:00,
2013-04-23 19:32:00,54.0,36.0,-100.00,SSE,152,1.0,5.0,51,0.00,,,0.00,125.000000,,2013-04-23 23:32:00,
2013-04-23 20:02:00,52.0,37.0,-100.00,SE,145,1.0,5.0,57,0.00,,,0.00,43.000000,,2013-04-24 00:02:00,
2013-04-23 20:11:00,52.0,37.0,-100.00,SE,145,1.0,5.0,57,0.00,,,0.00,43.000000,,2013-04-24 00:11:00,
2013-04-23 20:22:00,52.0,37.0,-100.00,SE,145,1.0,5.0,57,0.00,,,0.00,43.000000,,2013-04-24 00:22:00,
2013-04-23 20:32:00,52.0,37.0,-100.00,SE,145,1.0,5.0,57,0.00,,,0.00,43.000000,,2013-04-24 00:32:00,
2013-04-23 21:02:00,49.0,38.0,-100.00,SSE,149,0.0,2.0,65,0.00,,,0.00,2.000000,,2013-04-24 01:02:00,
2013-04-23 21:12:00,49.0,38.0,-100.00,SSE,149,0.0,2.0,65,0.00,,,0.00,2.000000,,2013-04-24 01:12:00,
2013-04-23 21:21:00,49.0,38.0,-100.00,SSE,149,0.0,2.0,65,0.00,,,0.00,2.000000,,2013-04-24 01:21:00,
2013-04-23 21:32:00,49.0,38.0,-100.00,SSE,149,0.0,2.0,65,0.00,,,0.00,2.000000,,2013-04-24 01:32:00,
2013-04-23 22:02:00,45.0,37.0,-100.00,South,169,0.0,2.0,73,0.00,,,0.00,0.000000,,2013-04-24 02:02:00,
2013-04-23 22:20:00,45.0,37.0,-100.00,South,169,0.0,2.0,73,0.00,,,0.00,0.000000,,2013-04-24 02:20:00,
2013-04-23 22:30:00,45.0,37.0,-100.00,South,169,0.0,2.0,73,0.00,,,0.00,0.000000,,2013-04-24 02:30:00,
2013-04-23 22:38:00,41.0,36.0,-100.00,North,351,1.0,2.0,82,0.00,,,0.00,0.000000,,2013-04-24 02:38:00,
2013-04-23 23:12:00,41.0,36.0,-100.00,North,351,1.0,2.0,82,0.00,,,0.00,0.000000,,2013-04-24 03:12:00,
2013-04-23 23:18:00,41.0,36.0,-100.00,North,351,1.0,2.0,82,0.00,,,0.00,0.000000,,2013-04-24 03:18:00,
2013-04-23 23:32:00,41.0,36.0,-100.00,North,351,1.0,2.0,82,0.00,,,0.00,0.000000,,2013-04-24 03:32:00,